메인 페이지
METAR-TAF:

METAR-TAF

공항 :

Richard Lloyd Jones Jr. Airport

털사, 오클라호마, 미국

위도: 36-02-33N, 경도: 095-59-22W, 고도: 194m

현재 날씨관측

예보는 38분 전, 02:53시(UTC)에 발표되었습니다.
무풍
온도 8°C
습도 71%
기압 1016 hPa
시정: 16.1km
맑음

METAR: KRVS 170253Z 00000KT 10SM CLR 08/03 A3000 RMK AO2 SLP165 T00780033 58003

시각: 21:31 (03:31 UTC)

예보

예보는 4 시간 11분 전, 23:20시(UTC)에 발표되었습니다.
예보 대상 시간: 17일 00시부터 17일 24시까지 (UTC)
동남동9kt
시정: 10km
맑음
17일 0100시부터 (UTC)
3kt
시정: 10km
고도 25000ft 상공 구름 보통
17일 2100시부터 (UTC)
북북서12kt
시정: 10km
고도 2500ft 상공 구름 많음

TAF: KRVS 162320Z 1700/1724 12009KT P6SM SKC FM170100 17003KT P6SM SCT250 FM172100 34012KT P6SM BKN025

4,000개 이상의 공항 관측 자료 및 예보 (METAR 및 TAF 보고).

지도상에서 검색 가능한 기상관측소가 노란 점과 빨간 점으로 표시되어 있습니다.

기상관측소 명을 보려면 표시 위로 마우스를 이동하세요.

날씨 관측과 예보를 보려면 클릭하세요.

지도 변경 : 확대하려면 엑스 표시가 있는 녹색 버튼, 축소하려면 빼기 표시가 있는 녹색 버튼, 다음 페이지의 지도를 보려면 녹색 화살표를 클릭하세요.


METAR-TAF: